Time;durP1;ratioP1;P1;durP2;ratioP2;P2;SDS_P1;SDS_P2;PMS_P1;PMS_P2;Temp;Humidity;BMP_temperature;BMP_pressure;BME280_temperature;BME280_humidity;BME280_pressure;Samples;Min_cycle;Max_cycle;Signal;HPM_P1;HPM_P2
2022/11/02 00:00:23;;;;;;;6.80;5.28;;;;;;;;;;5013530;28;20472;-78
2022/11/02 00:02:49;;;;;;;6.30;5.60;;;;;;;;;;5012926;28;20030;-76
2022/11/02 00:05:15;;;;;;;7.75;5.97;;;;;;;;;;5023034;28;20182;-74
2022/11/02 00:07:42;;;;;;;6.82;5.85;;;;;;;;;;5017167;28;20501;-72
2022/11/02 00:10:09;;;;;;;8.13;5.68;;;;;;;;;;5015512;28;20036;-72
2022/11/02 00:12:35;;;;;;;8.18;5.55;;;;;;;;;;5018789;28;20159;-71
2022/11/02 00:15:02;;;;;;;6.43;5.30;;;;;;;;;;5020838;28;20359;-71
2022/11/02 00:17:28;;;;;;;8.50;5.75;;;;;;;;;;5017694;28;20026;-75
2022/11/02 00:19:55;;;;;;;7.18;5.85;;;;;;;;;;5020432;28;20022;-73
2022/11/02 00:22:22;;;;;;;11.82;6.05;;;;;;;;;;5017489;28;20020;-74
2022/11/02 00:24:48;;;;;;;8.20;5.75;;;;;;;;;;5022485;28;20045;-72
2022/11/02 00:27:14;;;;;;;8.20;6.07;;;;;;;;;;5021956;28;20116;-73
2022/11/02 00:29:40;;;;;;;6.25;5.07;;;;;;;;;;5017466;28;20087;-72
2022/11/02 00:32:06;;;;;;;7.88;5.15;;;;;;;;;;5018781;28;20032;-74
2022/11/02 00:34:33;;;;;;;10.48;5.57;;;;;;;;;;5021585;28;20030;-73
2022/11/02 00:36:59;;;;;;;7.35;5.38;;;;;;;;;;5024580;28;20681;-73
2022/11/02 00:39:25;;;;;;;8.90;5.30;;;;;;;;;;5018912;28;20030;-73
2022/11/02 00:41:51;;;;;;;10.95;5.65;;;;;;;;;;5018221;28;20056;-77
2022/11/02 00:44:17;;;;;;;8.35;5.35;;;;;;;;;;5018037;28;20025;-73
2022/11/02 00:46:44;;;;;;;7.80;5.68;;;;;;;;;;5021384;28;20042;-74
2022/11/02 00:49:10;;;;;;;9.30;5.65;;;;;;;;;;5021913;28;20013;-73
2022/11/02 00:51:36;;;;;;;6.40;4.95;;;;;;;;;;5017393;28;20370;-77
2022/11/02 00:54:02;;;;;;;9.18;5.40;;;;;;;;;;5026439;28;20030;-72
2022/11/02 00:56:28;;;;;;;7.90;5.60;;;;;;;;;;5017432;28;20496;-75
2022/11/02 00:58:54;;;;;;;7.13;5.70;;;;;;;;;;5020734;28;20062;-76
2022/11/02 01:01:21;;;;;;;8.90;6.07;;;;;;;;;;5023835;28;20127;-74
2022/11/02 01:03:47;;;;;;;6.80;5.13;;;;;;;;;;5035048;28;20424;-72
2022/11/02 01:06:14;;;;;;;7.80;5.60;;;;;;;;;;5026854;28;20587;-76
2022/11/02 01:08:40;;;;;;;8.40;5.75;;;;;;;;;;5021607;28;20263;-73
2022/11/02 01:11:11;;;;;;;11.23;5.13;;;;;;;;;;5024210;28;20024;-76
2022/11/02 01:13:37;;;;;;;11.60;5.43;;;;;;;;;;5025159;28;20489;-75
2022/11/02 01:16:04;;;;;;;6.72;5.18;;;;;;;;;;5021785;28;20527;-76
2022/11/02 01:18:30;;;;;;;8.20;5.38;;;;;;;;;;5024571;28;20036;-71
2022/11/02 01:20:56;;;;;;;7.50;5.68;;;;;;;;;;5019026;28;20369;-74
2022/11/02 01:23:23;;;;;;;8.25;5.63;;;;;;;;;;5024747;28;20416;-74
2022/11/02 01:25:49;;;;;;;9.82;5.57;;;;;;;;;;5023636;28;20022;-76
2022/11/02 01:28:15;;;;;;;9.68;5.13;;;;;;;;;;5018803;28;20029;-74
2022/11/02 01:30:41;;;;;;;10.18;4.60;;;;;;;;;;5019650;28;20025;-74
2022/11/02 01:33:07;;;;;;;7.85;4.95;;;;;;;;;;5056710;28;20076;-72
2022/11/02 01:35:36;;;;;;;7.22;4.90;;;;;;;;;;5021983;28;20649;-74
2022/11/02 01:38:02;;;;;;;6.35;4.65;;;;;;;;;;5018329;28;20088;-72
2022/11/02 01:40:34;;;;;;;9.70;4.85;;;;;;;;;;5020183;28;20498;-74
2022/11/02 01:43:00;;;;;;;4.93;4.40;;;;;;;;;;5021711;28;20382;-76
2022/11/02 01:45:27;;;;;;;6.88;5.10;;;;;;;;;;5018651;28;20124;-74
2022/11/02 01:47:54;;;;;;;8.77;5.40;;;;;;;;;;5021056;28;20025;-76
2022/11/02 01:50:22;;;;;;;8.55;5.50;;;;;;;;;;5023206;28;20028;-77
2022/11/02 01:52:48;;;;;;;8.10;6.35;;;;;;;;;;5025024;28;20021;-73
2022/11/02 01:55:25;;;;;;;8.80;6.18;;;;;;;;;;5018670;28;20051;-76
2022/11/02 01:57:55;;;;;;;8.23;6.22;;;;;;;;;;5020362;28;20029;-71
2022/11/02 02:00:21;;;;;;;8.85;6.70;;;;;;;;;;5022887;28;20025;-74
2022/11/02 02:03:11;;;;;;;12.30;7.85;;;;;;;;;;5029123;28;20450;-76
2022/11/02 02:05:41;;;;;;;8.18;7.35;;;;;;;;;;5020630;28;20052;-77
2022/11/02 02:08:08;;;;;;;7.75;6.95;;;;;;;;;;5014270;28;20018;-76
2022/11/02 02:10:35;;;;;;;10.05;7.10;;;;;;;;;;5021931;28;20021;-76
2022/11/02 02:13:02;;;;;;;7.93;7.05;;;;;;;;;;5020645;28;20079;-77
2022/11/02 02:15:35;;;;;;;9.30;6.70;;;;;;;;;;5016704;28;20022;-76
2022/11/02 02:18:05;;;;;;;8.38;7.25;;;;;;;;;;5016649;28;20056;-73
2022/11/02 02:20:44;;;;;;;9.82;7.10;;;;;;;;;;5022811;28;20181;-73
2022/11/02 02:23:10;;;;;;;8.18;6.88;;;;;;;;;;5022472;28;20113;-73
2022/11/02 02:25:48;;;;;;;8.43;7.18;;;;;;;;;;5024413;28;20042;-75
2022/11/02 02:28:20;;;;;;;9.13;7.15;;;;;;;;;;5016637;28;20033;-72
2022/11/02 02:30:46;;;;;;;;;;;;;;;;;;5021328;28;20079;-75
2022/11/02 02:33:16;;;;;;;11.82;7.13;;;;;;;;;;5015728;28;19980;-71
2022/11/02 02:35:48;;;;;;;7.57;6.78;;;;;;;;;;5019512;28;20591;-74
2022/11/02 02:38:17;;;;;;;9.80;6.93;;;;;;;;;;5018594;28;20093;-76
2022/11/02 02:40:43;;;;;;;9.85;7.70;;;;;;;;;;5029332;28;20351;-78
2022/11/02 02:43:12;;;;;;;9.77;6.78;;;;;;;;;;5018354;28;20014;-74
2022/11/02 02:45:43;;;;;;;10.50;6.72;;;;;;;;;;5026353;28;20044;-79
2022/11/02 02:48:15;;;;;;;11.27;6.72;;;;;;;;;;5020397;28;20115;-78
2022/11/02 02:50:46;;;;;;;8.85;7.18;;;;;;;;;;5029697;28;20139;-78
2022/11/02 02:53:13;;;;;;;10.02;7.03;;;;;;;;;;5021549;28;20021;-77
2022/11/02 02:55:46;;;;;;;10.38;6.95;;;;;;;;;;5018844;28;20470;-78
2022/11/02 02:58:15;;;;;;;9.45;6.35;;;;;;;;;;5021602;28;20857;-72
2022/11/02 03:00:41;;;;;;;9.00;6.25;;;;;;;;;;5022328;28;20017;-73
2022/11/02 03:03:07;;;;;;;7.30;5.82;;;;;;;;;;5023072;28;20021;-73
2022/11/02 03:05:34;;;;;;;8.45;6.00;;;;;;;;;;5024308;28;20496;-75
2022/11/02 03:08:11;;;;;;;7.95;6.22;;;;;;;;;;5023538;28;20036;-74
2022/11/02 03:10:40;;;;;;;7.68;5.57;;;;;;;;;;5019197;28;20626;-74
2022/11/02 03:13:10;;;;;;;8.98;6.05;;;;;;;;;;5019027;28;20017;-75
2022/11/02 03:15:44;;;;;;;6.22;5.50;;;;;;;;;;5017395;28;20023;-75
2022/11/02 03:18:29;;;;;;;6.65;5.95;;;;;;;;;;5027863;28;20022;-73
2022/11/02 03:21:04;;;;;;;8.00;6.05;;;;;;;;;;5019776;28;20022;-74
2022/11/02 03:23:51;;;;;;;8.40;5.57;;;;;;;;;;5026130;28;20481;-75
2022/11/02 03:26:40;;;;;;;6.28;5.35;;;;;;;;;;5018881;28;20034;-77
2022/11/02 03:29:09;;;;;;;8.15;5.72;;;;;;;;;;5013032;28;20035;-74
2022/11/02 03:31:35;;;;;;;7.10;5.68;;;;;;;;;;5019800;28;20022;-74
2022/11/02 03:34:22;;;;;;;6.38;5.50;;;;;;;;;;5017957;28;20053;-75
2022/11/02 03:36:48;;;;;;;8.27;5.97;;;;;;;;;;5017818;28;20124;-73
2022/11/02 03:39:17;;;;;;;7.32;6.03;;;;;;;;;;5020329;28;20029;-75
2022/11/02 03:41:44;;;;;;;10.52;6.00;;;;;;;;;;5018349;28;20022;-72
2022/11/02 03:44:13;;;;;;;9.82;6.13;;;;;;;;;;5014001;28;20050;-76
2022/11/02 03:46:41;;;;;;;5.80;5.20;;;;;;;;;;5019909;28;20025;-76
2022/11/02 03:49:10;;;;;;;9.43;5.78;;;;;;;;;;5022104;28;20079;-73
2022/11/02 03:51:38;;;;;;;7.70;5.70;;;;;;;;;;5023675;28;20025;-72
2022/11/02 03:54:07;;;;;;;11.25;6.35;;;;;;;;;;5019578;28;20453;-73
2022/11/02 03:56:38;;;;;;;6.32;5.72;;;;;;;;;;5023174;28;20372;-75
2022/11/02 03:59:04;;;;;;;;;;;;;;;;;;5017387;28;20386;-76
2022/11/02 04:01:36;;;;;;;8.63;5.90;;;;;;;;;;5018596;28;19909;-76
2022/11/02 04:04:03;;;;;;;5.40;4.85;;;;;;;;;;5016689;28;20040;-73
2022/11/02 04:06:30;;;;;;;7.32;5.40;;;;;;;;;;5017638;28;20350;-77
2022/11/02 04:08:56;;;;;;;7.75;5.47;;;;;;;;;;5015439;28;20090;-73
2022/11/02 04:19:26;;;;;;;7.93;5.40;;;;;;;;;;5015534;28;20161;-78
2022/11/02 04:19:41;;;;;;;12.13;5.63;;;;;;;;;;5016536;28;20029;-72
2022/11/02 04:27:36;;;;;;;10.73;5.53;;;;;;;;;;5015315;28;20032;-75
2022/11/02 04:30:03;;;;;;;7.18;5.70;;;;;;;;;;5013609;28;20405;-73
2022/11/02 04:35:14;;;;;;;8.43;5.38;;;;;;;;;;5022948;28;20032;-74
2022/11/02 04:40:26;;;;;;;8.48;5.90;;;;;;;;;;5016496;28;20079;-73
2022/11/02 04:42:52;;;;;;;6.55;5.50;;;;;;;;;;5015625;28;20036;-75
2022/11/02 04:45:18;;;;;;;8.65;5.60;;;;;;;;;;5021180;28;20032;-73
2022/11/02 04:47:44;;;;;;;7.97;5.50;;;;;;;;;;5018328;28;20021;-73
2022/11/02 04:50:11;;;;;;;6.72;5.50;;;;;;;;;;5012288;28;20024;-73
2022/11/02 04:52:38;;;;;;;8.52;6.20;;;;;;;;;;5018261;28;20771;-74
2022/11/02 04:55:04;;;;;;;7.93;5.60;;;;;;;;;;5022446;28;20057;-74
2022/11/02 04:57:30;;;;;;;7.97;5.88;;;;;;;;;;5017454;28;20062;-74
2022/11/02 04:59:56;;;;;;;9.38;6.65;;;;;;;;;;5019311;28;20036;-74
2022/11/02 05:02:22;;;;;;;8.50;5.95;;;;;;;;;;5013544;28;20022;-72
2022/11/02 05:04:49;;;;;;;8.52;5.75;;;;;;;;;;5020829;28;20032;-76
2022/11/02 05:07:15;;;;;;;9.63;5.53;;;;;;;;;;5015226;28;20083;-72
2022/11/02 05:09:41;;;;;;;8.93;5.93;;;;;;;;;;5016689;28;20021;-72
2022/11/02 05:12:08;;;;;;;9.40;5.95;;;;;;;;;;5018063;28;20548;-72
2022/11/02 05:14:36;;;;;;;9.63;6.28;;;;;;;;;;5017703;28;20037;-72
2022/11/02 05:17:02;;;;;;;11.55;6.85;;;;;;;;;;5020843;28;20116;-73
2022/11/02 05:19:29;;;;;;;10.48;6.80;;;;;;;;;;5011617;28;20083;-73
2022/11/02 05:21:55;;;;;;;9.52;6.82;;;;;;;;;;5014297;28;20021;-72
2022/11/02 05:24:21;;;;;;;14.10;7.00;;;;;;;;;;5017335;28;20040;-72
2022/11/02 05:26:48;;;;;;;9.43;7.20;;;;;;;;;;5016920;28;20037;-74
2022/11/02 05:29:14;;;;;;;7.00;6.28;;;;;;;;;;5015442;28;20048;-75
2022/11/02 05:31:40;;;;;;;9.20;6.70;;;;;;;;;;5021876;28;20569;-72
2022/11/02 05:34:06;;;;;;;9.35;6.30;;;;;;;;;;5019030;28;20029;-71
2022/11/02 05:36:32;;;;;;;7.57;6.38;;;;;;;;;;5042050;28;20558;-71
2022/11/02 05:38:59;;;;;;;11.50;6.80;;;;;;;;;;5015549;28;20720;-76
2022/11/02 05:41:25;;;;;;;9.15;6.05;;;;;;;;;;5011521;28;20389;-76
2022/11/02 05:43:51;;;;;;;8.32;6.93;;;;;;;;;;5019893;28;20570;-76
2022/11/02 05:46:17;;;;;;;7.70;6.05;;;;;;;;;;5012384;28;20102;-74
2022/11/02 05:48:44;;;;;;;9.20;6.70;;;;;;;;;;5017618;28;20025;-76
2022/11/02 05:51:10;;;;;;;9.65;6.43;;;;;;;;;;5018041;28;20048;-77
2022/11/02 05:53:37;;;;;;;9.88;6.97;;;;;;;;;;5021826;28;20101;-73
2022/11/02 05:56:07;;;;;;;9.93;6.72;;;;;;;;;;5024852;28;20030;-74
2022/11/02 05:58:33;;;;;;;11.82;7.20;;;;;;;;;;5019054;28;20022;-73
2022/11/02 06:01:00;;;;;;;10.23;7.25;;;;;;;;;;5025405;28;20518;-74
2022/11/02 06:03:27;;;;;;;8.70;7.25;;;;;;;;;;5019547;28;20020;-77
2022/11/02 06:05:59;;;;;;;8.38;7.00;;;;;;;;;;5017832;28;20081;-75
2022/11/02 06:08:26;;;;;;;8.15;7.13;;;;;;;;;;5017442;28;20693;-76
2022/11/02 06:10:52;;;;;;;9.82;7.00;;;;;;;;;;5019326;28;20029;-77
2022/11/02 06:13:18;;;;;;;9.43;7.32;;;;;;;;;;5021338;28;20025;-78
2022/11/02 06:15:44;;;;;;;8.43;6.85;;;;;;;;;;5018662;28;20037;-78
2022/11/02 06:18:10;;;;;;;10.80;7.18;;;;;;;;;;5043156;28;20022;-77
2022/11/02 06:20:36;;;;;;;10.90;7.53;;;;;;;;;;5026515;28;20674;-79
2022/11/02 06:23:02;;;;;;;11.23;8.23;;;;;;;;;;5020858;28;20036;-74
2022/11/02 06:25:29;;;;;;;10.45;8.27;;;;;;;;;;5021143;28;20052;-75
2022/11/02 06:27:56;;;;;;;8.88;7.97;;;;;;;;;;5020071;28;20061;-73
2022/11/02 06:30:22;;;;;;;16.13;10.00;;;;;;;;;;5012478;28;20091;-75
2022/11/02 06:32:50;;;;;;;14.32;9.68;;;;;;;;;;5014149;28;20466;-77
2022/11/02 06:35:17;;;;;;;10.23;8.68;;;;;;;;;;5017402;28;20029;-74
2022/11/02 06:37:43;;;;;;;12.35;9.85;;;;;;;;;;5005832;28;20741;-77
2022/11/02 06:40:10;;;;;;;11.15;8.98;;;;;;;;;;5010293;28;20028;-72
2022/11/02 06:42:36;;;;;;;11.45;9.10;;;;;;;;;;5009746;28;20017;-73
2022/11/02 06:45:03;;;;;;;10.30;8.20;;;;;;;;;;5015068;28;20033;-75
2022/11/02 06:47:31;;;;;;;14.23;9.88;;;;;;;;;;5018822;28;20033;-72
2022/11/02 06:49:57;;;;;;;14.75;9.88;;;;;;;;;;5013444;28;20108;-74
2022/11/02 06:52:23;;;;;;;18.58;9.23;;;;;;;;;;5017980;28;20029;-80
2022/11/02 06:54:49;;;;;;;12.48;9.75;;;;;;;;;;5016796;28;20026;-78
2022/11/02 06:57:15;;;;;;;10.90;8.93;;;;;;;;;;5017921;28;20049;-78
2022/11/02 06:59:42;;;;;;;10.88;8.30;;;;;;;;;;5018403;28;20033;-72
2022/11/02 07:02:09;;;;;;;12.40;8.00;;;;;;;;;;5013744;28;20057;-74
2022/11/02 07:04:35;;;;;;;9.18;7.95;;;;;;;;;;5018708;28;20128;-78
2022/11/02 07:07:01;;;;;;;13.23;8.40;;;;;;;;;;5018382;28;20032;-75
2022/11/02 07:09:27;;;;;;;11.88;7.45;;;;;;;;;;5018913;28;20071;-73
2022/11/02 07:11:53;;;;;;;8.93;6.47;;;;;;;;;;5014523;28;20037;-73
2022/11/02 07:14:19;;;;;;;9.57;6.95;;;;;;;;;;5016691;28;20100;-78
2022/11/02 07:16:45;;;;;;;10.77;7.07;;;;;;;;;;5013225;28;20030;-74
2022/11/02 07:19:12;;;;;;;11.15;6.63;;;;;;;;;;5017981;28;20517;-74
2022/11/02 07:21:38;;;;;;;9.73;5.82;;;;;;;;;;5009951;28;20040;-75
2022/11/02 07:24:04;;;;;;;7.32;6.07;;;;;;;;;;5017399;28;20100;-82
2022/11/02 07:26:31;;;;;;;9.57;6.28;;;;;;;;;;5017246;28;20072;-73
2022/11/02 07:28:57;;;;;;;11.40;6.82;;;;;;;;;;5013855;28;20022;-73
2022/11/02 07:31:24;;;;;;;9.50;6.82;;;;;;;;;;5015108;28;20481;-74
2022/11/02 07:33:50;;;;;;;11.95;6.43;;;;;;;;;;5010734;28;20390;-74
2022/11/02 07:36:16;;;;;;;9.50;5.82;;;;;;;;;;5015889;28;20029;-75
2022/11/02 07:38:42;;;;;;;8.68;6.03;;;;;;;;;;5012765;28;20025;-73
2022/11/02 07:41:08;;;;;;;8.60;6.00;;;;;;;;;;5015303;28;20029;-74
2022/11/02 07:43:35;;;;;;;11.02;6.13;;;;;;;;;;5013852;28;20026;-74
2022/11/02 07:46:01;;;;;;;6.40;5.75;;;;;;;;;;5018958;28;20038;-73
2022/11/02 07:48:27;;;;;;;9.70;6.05;;;;;;;;;;5014703;28;20026;-80
2022/11/02 07:50:54;;;;;;;12.25;7.00;;;;;;;;;;5019404;28;20030;-74
2022/11/02 07:53:20;;;;;;;11.90;7.70;;;;;;;;;;5015465;28;20025;-81
2022/11/02 07:55:46;;;;;;;12.60;8.23;;;;;;;;;;5013024;28;20025;-77
2022/11/02 07:58:15;;;;;;;8.90;6.82;;;;;;;;;;5022663;28;20525;-78
2022/11/02 08:00:41;;;;;;;19.67;7.85;;;;;;;;;;5016103;28;20042;-78
2022/11/02 08:03:08;;;;;;;11.98;7.25;;;;;;;;;;5016755;28;20029;-79
2022/11/02 08:05:36;;;;;;;15.13;7.82;;;;;;;;;;5014624;28;20041;-80
2022/11/02 08:08:03;;;;;;;11.65;7.57;;;;;;;;;;5019499;28;20033;-80
2022/11/02 08:10:30;;;;;;;11.43;7.45;;;;;;;;;;5017248;28;20470;-75
2022/11/02 08:12:57;;;;;;;15.27;8.98;;;;;;;;;;5023669;28;20025;-78
2022/11/02 08:15:24;;;;;;;10.48;7.90;;;;;;;;;;5019379;28;20029;-79
2022/11/02 08:18:02;;;;;;;11.95;7.78;;;;;;;;;;5020732;28;20136;-76
2022/11/02 08:20:29;;;;;;;13.15;8.60;;;;;;;;;;5020833;28;20037;-76
2022/11/02 08:22:55;;;;;;;13.93;9.05;;;;;;;;;;5008842;28;20022;-82
2022/11/02 08:25:21;;;;;;;11.63;8.70;;;;;;;;;;5013213;28;20025;-82
2022/11/02 08:27:47;;;;;;;10.65;8.13;;;;;;;;;;5013449;28;20029;-76
2022/11/02 08:30:14;;;;;;;8.68;7.15;;;;;;;;;;5019518;28;20083;-81
2022/11/02 08:32:40;;;;;;;12.73;7.90;;;;;;;;;;5014860;28;20267;-77
2022/11/02 08:35:06;;;;;;;8.50;6.40;;;;;;;;;;5019947;28;20022;-81
2022/11/02 08:37:32;;;;;;;11.57;7.03;;;;;;;;;;5019530;28;20058;-80
2022/11/02 08:39:58;;;;;;;9.68;7.07;;;;;;;;;;5023512;28;20022;-82
2022/11/02 08:42:25;;;;;;;8.80;6.85;;;;;;;;;;5019346;28;20053;-79
2022/11/02 08:44:51;;;;;;;9.60;6.65;;;;;;;;;;5022136;28;20028;-77
2022/11/02 08:47:17;;;;;;;10.05;6.78;;;;;;;;;;5019607;28;20181;-77
2022/11/02 08:49:45;;;;;;;10.48;6.63;;;;;;;;;;5017128;28;20029;-81
2022/11/02 08:52:12;;;;;;;10.90;7.78;;;;;;;;;;5019275;28;20026;-83
2022/11/02 08:54:38;;;;;;;11.18;7.45;;;;;;;;;;5014978;28;20473;-82
2022/11/02 08:57:04;;;;;;;9.65;8.27;;;;;;;;;;5051493;28;20501;-84
2022/11/02 08:59:30;;;;;;;9.65;7.85;;;;;;;;;;5016312;28;20021;-80
2022/11/02 09:01:56;;;;;;;12.95;8.13;;;;;;;;;;5010353;28;20037;-77
2022/11/02 09:04:22;;;;;;;11.15;8.00;;;;;;;;;;5025697;28;20025;-80
2022/11/02 09:06:49;;;;;;;10.35;8.30;;;;;;;;;;5019859;28;20029;-81
2022/11/02 09:09:15;;;;;;;10.23;8.82;;;;;;;;;;5019129;28;20033;-84
2022/11/02 09:11:41;;;;;;;13.65;9.13;;;;;;;;;;5019905;28;20034;-82
2022/11/02 09:14:07;;;;;;;12.05;9.18;;;;;;;;;;5016386;28;20025;-79
2022/11/02 09:16:34;;;;;;;13.38;8.93;;;;;;;;;;5018507;28;20112;-81
2022/11/02 09:19:00;;;;;;;12.38;8.20;;;;;;;;;;5020901;28;20117;-79
2022/11/02 09:21:26;;;;;;;10.02;8.25;;;;;;;;;;5021824;28;20030;-78
2022/11/02 09:23:52;;;;;;;11.48;8.32;;;;;;;;;;5025718;28;20029;-83
2022/11/02 09:26:19;;;;;;;13.77;8.60;;;;;;;;;;5023979;28;20035;-85
2022/11/02 09:28:45;;;;;;;12.35;8.98;;;;;;;;;;5025429;28;20485;-83
2022/11/02 09:31:11;;;;;;;8.43;7.43;;;;;;;;;;5026676;28;20018;-83
2022/11/02 09:33:37;;;;;;;12.27;8.23;;;;;;;;;;5024331;28;20026;-86
2022/11/02 09:36:04;;;;;;;9.40;7.50;;;;;;;;;;5025541;28;20041;-78
2022/11/02 09:38:30;;;;;;;22.65;8.25;;;;;;;;;;5027050;28;20038;-81
2022/11/02 09:40:59;;;;;;;8.73;7.55;;;;;;;;;;5029678;28;20021;-86
2022/11/02 09:43:28;;;;;;;15.50;8.05;;;;;;;;;;5026998;28;20481;-80
2022/11/02 09:45:59;;;;;;;14.52;7.57;;;;;;;;;;5030763;28;20045;-77
2022/11/02 09:48:35;;;;;;;8.90;7.18;;;;;;;;;;5015339;28;20109;-77
2022/11/02 09:51:01;;;;;;;11.40;7.75;;;;;;;;;;5019809;28;20025;-77
2022/11/02 09:53:31;;;;;;;15.10;8.30;;;;;;;;;;5022777;28;20025;-75
2022/11/02 09:55:59;;;;;;;13.82;9.88;;;;;;;;;;5019257;28;20025;-77
2022/11/02 09:58:37;;;;;;;10.15;7.43;;;;;;;;;;5022045;28;20041;-77
2022/11/02 10:01:11;;;;;;;18.15;8.23;;;;;;;;;;5024019;28;20041;-85
2022/11/02 10:03:47;;;;;;;15.32;7.60;;;;;;;;;;5027807;28;20425;-78
2022/11/02 10:06:18;;;;;;;12.68;7.55;;;;;;;;;;5015504;28;20103;-77
2022/11/02 10:09:02;;;;;;;10.65;7.68;;;;;;;;;;5021633;28;20103;-74
2022/11/02 10:11:43;;;;;;;9.57;8.25;;;;;;;;;;5020930;28;20017;-77
2022/11/02 10:14:20;;;;;;;15.10;8.73;;;;;;;;;;5022915;28;20017;-75
2022/11/02 10:16:54;;;;;;;13.45;7.95;;;;;;;;;;5021460;28;20072;-81
2022/11/02 10:19:21;;;;;;;11.18;8.55;;;;;;;;;;5023765;28;20101;-78
2022/11/02 10:21:49;;;;;;;13.73;7.38;;;;;;;;;;5018750;28;20025;-77
2022/11/02 10:24:22;;;;;;;14.15;8.98;;;;;;;;;;5019399;28;20029;-78
2022/11/02 10:26:48;;;;;;;25.27;9.48;;;;;;;;;;5018353;28;20490;-81
2022/11/02 10:29:21;;;;;;;13.15;8.70;;;;;;;;;;5021747;28;20043;-82
2022/11/02 10:31:47;;;;;;;15.27;9.32;;;;;;;;;;5021689;28;20021;-82
2022/11/02 10:34:20;;;;;;;14.07;8.75;;;;;;;;;;5023377;28;20033;-80
2022/11/02 10:37:04;;;;;;;15.50;8.98;;;;;;;;;;5020339;28;20155;-80
2022/11/02 10:39:31;;;;;;;11.90;8.20;;;;;;;;;;5030523;28;20057;-80
2022/11/02 10:42:09;;;;;;;9.90;8.25;;;;;;;;;;5028289;28;20131;-82
2022/11/02 10:44:40;;;;;;;12.70;8.05;;;;;;;;;;5021386;28;20073;-81
2022/11/02 10:47:15;;;;;;;14.63;10.00;;;;;;;;;;5016639;28;20030;-82
2022/11/02 10:49:59;;;;;;;12.43;8.82;;;;;;;;;;5023779;28;20056;-83
2022/11/02 10:52:30;;;;;;;12.23;8.70;;;;;;;;;;5021211;28;20040;-79
2022/11/02 10:54:56;;;;;;;11.85;8.75;;;;;;;;;;5019703;28;20031;-82
2022/11/02 10:57:24;;;;;;;10.82;8.52;;;;;;;;;;5017208;28;20470;-82
2022/11/02 11:00:09;;;;;;;9.80;8.45;;;;;;;;;;5024539;28;20087;-76
2022/11/02 11:02:35;;;;;;;12.30;8.43;;;;;;;;;;5025094;28;20155;-79
2022/11/02 11:05:12;;;;;;;10.95;8.27;;;;;;;;;;5019143;28;20039;-80
2022/11/02 11:07:43;;;;;;;12.15;8.43;;;;;;;;;;5027275;28;20029;-76
2022/11/02 11:10:14;;;;;;;11.80;8.95;;;;;;;;;;5017254;28;20025;-78
2022/11/02 11:12:43;;;;;;;10.52;8.25;;;;;;;;;;5017957;28;20082;-74
2022/11/02 11:15:19;;;;;;;10.63;8.90;;;;;;;;;;5016781;28;20018;-75
2022/11/02 11:17:46;;;;;;;12.63;9.05;;;;;;;;;;5017950;28;20025;-76
2022/11/02 11:20:32;;;;;;;11.63;8.80;;;;;;;;;;5013202;28;20033;-76
2022/11/02 11:23:09;;;;;;;10.27;8.77;;;;;;;;;;5013920;28;20053;-75
2022/11/02 11:25:35;;;;;;;12.27;8.48;;;;;;;;;;5018507;28;20038;-75
2022/11/02 11:28:01;;;;;;;13.15;9.18;;;;;;;;;;5023176;28;20021;-74
2022/11/02 11:30:32;;;;;;;11.15;8.40;;;;;;;;;;5014732;28;20030;-76
2022/11/02 11:32:59;;;;;;;11.13;8.32;;;;;;;;;;5017386;28;20094;-75
2022/11/02 11:35:36;;;;;;;13.82;9.38;;;;;;;;;;5014294;28;20025;-75
2022/11/02 11:38:05;;;;;;;10.85;8.43;;;;;;;;;;5021082;28;20049;-74
2022/11/02 11:40:39;;;;;;;14.85;8.90;;;;;;;;;;5018573;28;20076;-75
2022/11/02 11:43:10;;;;;;;9.27;8.30;;;;;;;;;;5017343;28;20017;-75
2022/11/02 11:45:37;;;;;;;11.68;8.60;;;;;;;;;;5018029;28;20477;-74
2022/11/02 11:48:22;;;;;;;14.25;9.05;;;;;;;;;;5018516;28;20026;-75
2022/11/02 11:50:49;;;;;;;12.93;8.23;;;;;;;;;;5016606;28;20021;-75
2022/11/02 11:53:15;;;;;;;9.65;8.02;;;;;;;;;;5018590;28;20021;-76
2022/11/02 11:55:48;;;;;;;14.30;8.80;;;;;;;;;;5021661;28;20032;-78
2022/11/02 11:58:21;;;;;;;8.88;7.95;;;;;;;;;;5017860;28;20037;-76
2022/11/02 12:01:06;;;;;;;10.32;8.23;;;;;;;;;;5018822;28;20017;-76
2022/11/02 12:03:33;;;;;;;13.38;7.90;;;;;;;;;;5015268;28;20474;-76
2022/11/02 12:06:02;;;;;;;10.98;8.68;;;;;;;;;;5020251;28;20033;-76
2022/11/02 12:08:28;;;;;;;12.32;8.50;;;;;;;;;;5021159;28;20162;-79
2022/11/02 12:11:05;;;;;;;9.00;8.10;;;;;;;;;;5017761;28;20281;-75
2022/11/02 12:13:49;;;;;;;11.20;8.85;;;;;;;;;;5032791;28;20652;-75
2022/11/02 12:16:34;;;;;;;18.23;8.40;;;;;;;;;;5018525;28;20031;-74
2022/11/02 12:19:00;;;;;;;9.82;7.82;;;;;;;;;;5015599;28;20329;-75
2022/11/02 12:21:43;;;;;;;11.25;7.75;;;;;;;;;;5018824;28;20512;-76
2022/11/02 12:24:21;;;;;;;11.90;7.55;;;;;;;;;;5018968;28;20033;-75
2022/11/02 12:26:56;;;;;;;10.68;7.75;;;;;;;;;;5022435;28;20045;-75
2022/11/02 12:29:32;;;;;;;12.52;8.85;;;;;;;;;;5015092;28;20022;-74
2022/11/02 12:31:58;;;;;;;10.65;8.55;;;;;;;;;;5018258;28;20022;-74
2022/11/02 12:34:34;;;;;;;14.10;8.57;;;;;;;;;;5018311;28;20052;-74
2022/11/02 12:37:00;;;;;;;9.27;8.38;;;;;;;;;;5024001;28;20054;-76
2022/11/02 12:39:26;;;;;;;10.30;7.93;;;;;;;;;;5020455;28;20048;-77
2022/11/02 12:42:02;;;;;;;13.02;8.82;;;;;;;;;;5013681;28;20430;-74
2022/11/02 12:44:34;;;;;;;12.15;9.32;;;;;;;;;;5018831;28;20077;-74
2022/11/02 12:47:03;;;;;;;11.80;8.77;;;;;;;;;;5017235;28;20045;-74
2022/11/02 12:49:40;;;;;;;11.23;8.68;;;;;;;;;;5016426;28;20026;-76
2022/11/02 12:52:06;;;;;;;9.85;8.73;;;;;;;;;;5011342;28;20442;-74
2022/11/02 12:54:36;;;;;;;10.10;8.38;;;;;;;;;;5014661;28;20642;-74
2022/11/02 12:57:02;;;;;;;12.75;9.05;;;;;;;;;;5021330;28;20029;-74
2022/11/02 12:59:31;;;;;;;9.95;8.82;;;;;;;;;;5018367;28;20026;-75
2022/11/02 13:01:58;;;;;;;10.73;9.00;;;;;;;;;;5016626;28;20474;-75
2022/11/02 13:04:47;;;;;;;12.20;9.13;;;;;;;;;;5022390;28;20037;-76
2022/11/02 13:07:15;;;;;;;12.88;8.63;;;;;;;;;;5016290;28;20503;-75
2022/11/02 13:09:45;;;;;;;11.20;9.07;;;;;;;;;;5018136;28;20225;-77
2022/11/02 13:12:14;;;;;;;9.63;8.63;;;;;;;;;;5018339;28;20043;-75
2022/11/02 13:14:42;;;;;;;10.70;9.32;;;;;;;;;;5018254;28;20034;-75
2022/11/02 13:17:16;;;;;;;9.43;8.23;;;;;;;;;;5023858;28;20083;-75
2022/11/02 13:19:45;;;;;;;10.98;8.85;;;;;;;;;;5018023;28;20030;-76
2022/11/02 13:22:13;;;;;;;16.33;9.00;;;;;;;;;;5018578;28;20025;-75
2022/11/02 13:24:42;;;;;;;14.48;8.75;;;;;;;;;;5020425;28;20018;-76
2022/11/02 13:27:23;;;;;;;11.07;8.82;;;;;;;;;;5021137;28;20041;-77
2022/11/02 13:29:49;;;;;;;11.32;8.88;;;;;;;;;;5018623;28;20152;-75
2022/11/02 13:32:21;;;;;;;14.65;9.80;;;;;;;;;;5035151;28;20025;-74
2022/11/02 13:34:49;;;;;;;12.95;9.25;;;;;;;;;;5017377;28;20029;-75
2022/11/02 13:37:27;;;;;;;13.27;9.27;;;;;;;;;;5019514;28;20049;-76
2022/11/02 13:39:56;;;;;;;9.95;9.02;;;;;;;;;;5020733;28;20447;-75
2022/11/02 13:42:22;;;;;;;15.52;9.60;;;;;;;;;;5020795;28;20022;-75
2022/11/02 13:44:57;;;;;;;12.30;9.20;;;;;;;;;;5019931;28;20018;-76
2022/11/02 13:47:27;;;;;;;10.00;8.70;;;;;;;;;;5018778;28;20034;-75
2022/11/02 13:49:54;;;;;;;12.40;9.90;;;;;;;;;;5024071;28;20032;-75
2022/11/02 13:52:26;;;;;;;10.90;9.13;;;;;;;;;;5018267;28;20033;-76
2022/11/02 13:54:54;;;;;;;13.18;9.27;;;;;;;;;;5020678;28;20080;-76
2022/11/02 13:57:29;;;;;;;16.73;9.80;;;;;;;;;;5017763;28;20100;-77
2022/11/02 13:59:55;;;;;;;13.60;9.48;;;;;;;;;;5025320;28;20095;-75
2022/11/02 14:02:23;;;;;;;18.38;9.38;;;;;;;;;;5017578;28;20037;-77
2022/11/02 14:04:49;;;;;;;27.95;10.45;;;;;;;;;;5015362;28;20105;-75
2022/11/02 14:07:26;;;;;;;23.02;10.02;;;;;;;;;;5016828;28;20742;-76
2022/11/02 14:09:57;;;;;;;41.92;12.25;;;;;;;;;;5019751;28;20482;-75
2022/11/02 14:12:23;;;;;;;19.23;10.45;;;;;;;;;;5018029;28;20030;-74
2022/11/02 14:15:08;;;;;;;14.95;10.00;;;;;;;;;;5018724;28;20030;-75
2022/11/02 14:17:53;;;;;;;11.32;9.32;;;;;;;;;;5015491;28;20083;-75
2022/11/02 14:20:34;;;;;;;13.38;10.00;;;;;;;;;;5019462;28;20014;-75
2022/11/02 14:23:18;;;;;;;13.32;9.93;;;;;;;;;;5020694;28;20036;-76
2022/11/02 14:25:44;;;;;;;13.95;9.30;;;;;;;;;;5014765;28;20447;-75
2022/11/02 14:28:27;;;;;;;11.95;9.35;;;;;;;;;;5023542;28;20646;-75
2022/11/02 14:31:02;;;;;;;13.13;9.60;;;;;;;;;;5020302;28;20524;-76
2022/11/02 14:33:38;;;;;;;10.35;8.95;;;;;;;;;;5018456;28;20045;-75
2022/11/02 14:36:10;;;;;;;13.40;9.65;;;;;;;;;;5020583;28;20052;-75
2022/11/02 14:38:45;;;;;;;10.65;9.10;;;;;;;;;;5018978;28;20037;-75
2022/11/02 14:41:35;;;;;;;15.13;10.18;;;;;;;;;;5017813;28;20056;-75
2022/11/02 14:44:05;;;;;;;15.10;9.68;;;;;;;;;;5020491;28;20065;-75
2022/11/02 14:46:35;;;;;;;14.55;10.13;;;;;;;;;;5013986;28;20041;-77
2022/11/02 14:49:03;;;;;;;16.60;9.73;;;;;;;;;;5020868;28;20026;-74
2022/11/02 14:51:31;;;;;;;15.35;10.32;;;;;;;;;;5010693;28;20041;-74
2022/11/02 14:54:03;;;;;;;12.45;10.38;;;;;;;;;;5015111;28;20026;-75
2022/11/02 14:56:48;;;;;;;14.40;9.60;;;;;;;;;;5021080;28;20061;-75
2022/11/02 14:59:22;;;;;;;16.17;9.63;;;;;;;;;;5011745;28;20026;-74
2022/11/02 15:01:55;;;;;;;13.88;10.05;;;;;;;;;;5013682;28;20600;-74
2022/11/02 15:04:21;;;;;;;11.00;9.50;;;;;;;;;;5012360;28;20087;-75